Time;durP1;ratioP1;P1;durP2;ratioP2;P2;SDS_P1;SDS_P2;PMS_P1;PMS_P2;Temp;Humidity;BMP_temperature;BMP_pressure;BME280_temperature;BME280_humidity;BME280_pressure;Samples;Min_cycle;Max_cycle;Signal;HPM_P1;HPM_P2
2023/04/04 00:01:37;;;;;;;4.70;2.90;;;2.40;39.10;;;;;;5070930;28;20385;-74
2023/04/04 00:04:03;;;;;;;6.87;3.30;;;2.40;39.20;;;;;;5070627;28;20401;-73
2023/04/04 00:06:29;;;;;;;7.40;3.40;;;2.40;40.40;;;;;;5070243;28;20411;-74
2023/04/04 00:08:54;;;;;;;5.23;3.30;;;2.30;41.30;;;;;;5072479;28;20424;-73
2023/04/04 00:11:20;;;;;;;5.50;3.30;;;2.40;41.60;;;;;;5069268;28;20401;-75
2023/04/04 00:13:46;;;;;;;5.13;3.45;;;2.40;42.50;;;;;;5070683;28;20377;-74
2023/04/04 00:16:12;;;;;;;6.30;3.60;;;2.20;43.60;;;;;;5069778;28;20450;-74
2023/04/04 00:18:37;;;;;;;6.13;3.70;;;2.10;43.80;;;;;;5068501;28;20754;-74
2023/04/04 00:21:03;;;;;;;11.10;3.87;;;2.10;42.00;;;;;;5070182;28;20455;-74
2023/04/04 00:23:29;;;;;;;7.87;3.93;;;2.10;41.50;;;;;;5067124;28;20404;-73
2023/04/04 00:25:54;;;;;;;7.73;3.83;;;2.10;41.40;;;;;;5067470;28;20480;-74
2023/04/04 00:28:21;;;;;;;8.75;3.72;;;2.10;42.20;;;;;;5067088;28;20409;-74
2023/04/04 00:30:47;;;;;;;9.15;4.28;;;2.10;41.20;;;;;;5066435;28;20385;-74
2023/04/04 00:33:13;;;;;;;9.75;4.15;;;2.20;39.80;;;;;;5068509;28;20405;-74
2023/04/04 00:35:38;;;;;;;9.68;4.30;;;2.30;38.70;;;;;;5068811;28;20384;-74
2023/04/04 00:38:04;;;;;;;5.50;3.28;;;2.20;38.90;;;;;;5067975;28;20395;-73
2023/04/04 00:40:30;;;;;;;6.13;3.50;;;2.30;37.60;;;;;;5067028;28;20415;-73
2023/04/04 00:42:56;;;;;;;8.03;3.40;;;2.30;37.40;;;;;;5069019;28;20389;-74
2023/04/04 00:45:22;;;;;;;8.77;3.45;;;2.40;36.80;;;;;;5067797;28;20385;-74
2023/04/04 00:47:49;;;;;;;4.53;3.25;;;2.40;36.30;;;;;;5069403;28;20401;-74
2023/04/04 00:50:15;;;;;;;6.43;3.20;;;2.50;35.10;;;;;;5069589;28;20413;-74
2023/04/04 00:52:41;;;;;;;8.23;3.30;;;2.50;36.80;;;;;;5070854;28;20388;-74
2023/04/04 00:55:07;;;;;;;5.27;2.80;;;2.70;34.60;;;;;;5070490;28;20377;-75
2023/04/04 00:57:33;;;;;;;6.93;3.30;;;3.00;32.10;;;;;;5068850;28;20381;-74
2023/04/04 01:00:03;;;;;;;5.40;3.20;;;3.00;31.80;;;;;;5068304;28;20404;-74
2023/04/04 01:02:29;;;;;;;5.68;3.10;;;3.00;32.80;;;;;;5067157;28;20751;-75
2023/04/04 01:04:55;;;;;;;10.65;3.60;;;2.90;32.70;;;;;;5058371;28;20386;-73
2023/04/04 01:07:20;;;;;;;7.65;3.55;;;3.00;32.90;;;;;;5055173;28;20440;-73
2023/04/04 01:09:47;;;;;;;9.57;3.50;;;3.00;33.10;;;;;;5054982;28;20451;-74
2023/04/04 01:12:13;;;;;;;10.45;3.70;;;2.90;33.00;;;;;;5054698;28;20451;-74
2023/04/04 01:14:39;;;;;;;5.90;3.50;;;2.80;34.10;;;;;;5053687;28;20873;-74
2023/04/04 01:17:04;;;;;;;4.37;2.90;;;2.70;35.00;;;;;;5054317;28;20388;-74
2023/04/04 01:19:37;;;;;;;8.85;3.30;;;2.50;36.30;;;;;;5053612;28;20389;-74
2023/04/04 01:22:04;;;;;;;6.68;3.20;;;2.40;36.20;;;;;;5059456;28;20402;-74
2023/04/04 01:24:33;;;;;;;7.75;3.10;;;2.40;36.00;;;;;;5057939;28;20389;-74
2023/04/04 01:26:59;;;;;;;6.47;3.28;;;2.40;36.60;;;;;;5057676;28;20449;-75
2023/04/04 01:29:26;;;;;;;5.90;2.63;;;2.40;36.30;;;;;;5060819;28;20396;-74
2023/04/04 01:32:02;;;;;;;6.57;2.70;;;2.40;35.00;;;;;;5065094;28;20381;-74
2023/04/04 01:34:41;;;;;;;4.40;2.80;;;2.60;33.10;;;;;;5064730;28;20712;-74
2023/04/04 01:37:25;;;;;;;6.28;3.00;;;2.60;33.00;;;;;;5064196;28;20385;-74
2023/04/04 01:40:13;;;;;;;6.53;2.97;;;2.40;33.40;;;;;;5061875;28;20492;-74
2023/04/04 01:42:41;;;;;;;8.15;3.30;;;2.10;35.80;;;;;;5052941;28;20389;-74
2023/04/04 01:45:07;;;;;;;7.50;3.10;;;2.10;36.10;;;;;;5058712;28;20386;-74
2023/04/04 01:47:40;;;;;;;6.28;2.75;;;2.10;36.40;;;;;;5056304;28;20409;-73
2023/04/04 01:50:07;;;;;;;5.88;3.20;;;1.90;37.00;;;;;;5053290;28;20377;-74
2023/04/04 01:52:33;;;;;;;7.22;3.47;;;2.00;38.40;;;;;;5065005;28;20382;-73
2023/04/04 01:54:59;;;;;;;6.40;3.40;;;2.00;39.10;;;;;;5066560;28;20393;-74
2023/04/04 01:57:24;;;;;;;6.95;3.20;;;1.70;40.10;;;;;;5064795;28;20394;-74
2023/04/04 01:59:50;;;;;;;8.33;3.27;;;1.70;42.60;;;;;;5065030;28;20382;-74
2023/04/04 02:02:15;;;;;;;5.10;2.90;;;1.80;40.10;;;;;;5063887;28;20394;-74
2023/04/04 02:04:42;;;;;;;3.80;2.73;;;2.00;38.50;;;;;;5070048;28;20397;-74
2023/04/04 02:07:07;;;;;;;5.75;2.40;;;2.00;38.20;;;;;;5068072;28;20407;-74
2023/04/04 02:09:33;;;;;;;6.20;3.03;;;2.00;36.50;;;;;;5067106;28;20878;-72
2023/04/04 02:11:59;;;;;;;4.20;2.90;;;1.90;37.20;;;;;;5065806;28;20462;-75
2023/04/04 02:14:25;;;;;;;5.32;2.63;;;1.90;38.20;;;;;;5067721;28;20384;-74
2023/04/04 02:16:50;;;;;;;7.38;2.70;;;2.00;36.40;;;;;;5063038;28;20838;-74
2023/04/04 02:19:16;;;;;;;3.60;3.00;;;1.90;36.80;;;;;;5066534;28;20409;-74
2023/04/04 02:21:41;;;;;;;4.15;2.55;;;1.90;38.90;;;;;;5065176;28;20461;-73
2023/04/04 02:24:07;;;;;;;6.90;3.20;;;1.80;38.70;;;;;;5064293;28;20400;-74
2023/04/04 02:26:33;;;;;;;7.07;2.80;;;1.80;39.90;;;;;;5064966;28;20384;-74
2023/04/04 02:28:58;;;;;;;6.30;2.90;;;1.80;39.60;;;;;;5065073;28;20420;-74
2023/04/04 02:31:24;;;;;;;5.90;3.10;;;1.70;38.40;;;;;;5064953;28;20389;-74
2023/04/04 02:33:49;;;;;;;6.13;2.90;;;1.60;39.40;;;;;;5063861;28;20465;-73
2023/04/04 02:36:15;;;;;;;4.88;2.70;;;1.40;40.00;;;;;;5064246;28;20385;-73
2023/04/04 02:38:41;;;;;;;3.80;2.90;;;1.30;40.60;;;;;;5063663;28;20385;-73
2023/04/04 02:41:06;;;;;;;4.40;2.97;;;1.30;40.70;;;;;;5062427;28;20920;-73
2023/04/04 02:43:32;;;;;;;6.07;2.60;;;1.20;41.30;;;;;;5063435;28;20487;-73
2023/04/04 02:45:57;;;;;;;4.38;3.00;;;1.10;41.20;;;;;;5062059;28;20384;-73
2023/04/04 02:48:24;;;;;;;3.80;2.60;;;1.10;40.80;;;;;;5062004;28;20433;-73
2023/04/04 02:50:50;;;;;;;5.40;3.00;;;1.10;41.00;;;;;;5058743;28;20405;-75
2023/04/04 02:53:16;;;;;;;5.30;3.72;;;1.00;41.60;;;;;;5058271;28;20389;-73
2023/04/04 02:55:41;;;;;;;8.48;4.65;;;0.90;42.60;;;;;;5067768;28;20384;-73
2023/04/04 02:58:07;;;;;;;8.73;3.50;;;1.00;43.50;;;;;;5063885;28;20389;-75
2023/04/04 03:00:33;;;;;;;7.32;3.78;;;1.10;43.30;;;;;;5057986;28;20385;-74
2023/04/04 03:02:58;;;;;;;10.40;3.55;;;1.10;43.20;;;;;;5066577;28;20389;-73
2023/04/04 03:05:25;;;;;;;7.03;3.70;;;1.10;42.70;;;;;;5067503;28;20393;-73
2023/04/04 03:07:55;;;;;;;8.50;3.40;;;1.20;43.30;;;;;;5068174;28;20800;-73
2023/04/04 03:10:21;;;;;;;9.18;3.97;;;1.30;42.30;;;;;;5063779;28;20402;-73
2023/04/04 03:12:47;;;;;;;6.32;3.90;;;1.20;43.20;;;;;;5063098;28;20382;-73
2023/04/04 03:15:13;;;;;;;6.28;3.88;;;1.10;43.00;;;;;;5066573;28;20431;-73
2023/04/04 03:17:39;;;;;;;8.65;3.35;;;0.80;44.50;;;;;;5066326;28;20472;-74
2023/04/04 03:20:05;;;;;;;7.22;3.70;;;0.70;45.70;;;;;;5063653;28;20406;-73
2023/04/04 03:22:31;;;;;;;7.82;3.67;;;0.70;46.40;;;;;;5064366;28;20402;-73
2023/04/04 03:24:57;;;;;;;11.10;4.10;;;0.60;46.80;;;;;;5053492;28;20391;-73
2023/04/04 03:27:22;;;;;;;5.57;3.45;;;0.70;48.80;;;;;;5050482;28;20519;-73
2023/04/04 03:29:48;;;;;;;7.67;3.97;;;0.80;48.40;;;;;;5050492;28;20381;-74
2023/04/04 03:32:13;;;;;;;7.77;3.63;;;0.90;47.70;;;;;;5050135;28;20382;-74
2023/04/04 03:34:39;;;;;;;8.37;3.40;;;0.70;46.30;;;;;;5050679;28;20384;-74
2023/04/04 03:37:04;;;;;;;6.97;3.60;;;0.80;46.90;;;;;;5050365;28;20439;-74
2023/04/04 03:39:30;;;;;;;9.82;3.45;;;0.70;46.70;;;;;;5051112;28;20395;-74
2023/04/04 03:41:56;;;;;;;6.75;3.47;;;0.70;45.30;;;;;;5050421;28;20461;-74
2023/04/04 03:44:22;;;;;;;7.18;3.90;;;0.70;44.40;;;;;;5050880;28;20389;-74
2023/04/04 03:46:48;;;;;;;6.07;3.50;;;0.70;43.60;;;;;;5050346;28;20393;-74
2023/04/04 03:49:13;;;;;;;7.00;3.42;;;0.70;44.20;;;;;;5048963;28;20731;-73
2023/04/04 03:51:39;;;;;;;9.77;4.18;;;0.70;45.20;;;;;;5050894;28;20381;-74
2023/04/04 03:54:04;;;;;;;4.95;4.00;;;0.80;42.70;;;;;;5053866;28;20469;-74
2023/04/04 03:56:31;;;;;;;8.77;4.50;;;1.10;46.80;;;;;;5053783;28;20479;-74
2023/04/04 03:58:57;;;;;;;6.90;4.13;;;1.60;45.30;;;;;;5053800;28;20385;-74
2023/04/04 04:01:23;;;;;;;6.78;4.05;;;1.60;43.40;;;;;;5052137;28;20392;-74
2023/04/04 04:03:48;;;;;;;5.60;3.87;;;1.60;45.50;;;;;;5053924;28;20386;-74
2023/04/04 04:06:14;;;;;;;10.13;3.30;;;1.80;44.90;;;;;;5053829;28;20377;-73
2023/04/04 04:08:39;;;;;;;11.30;4.10;;;2.10;40.60;;;;;;5053770;28;20449;-73
2023/04/04 04:11:05;;;;;;;9.05;3.80;;;2.10;41.60;;;;;;5052362;28;20443;-73
2023/04/04 04:13:31;;;;;;;9.23;3.70;;;2.00;38.90;;;;;;5053610;28;20389;-73
2023/04/04 04:15:57;;;;;;;8.43;3.90;;;1.50;36.80;;;;;;5056625;28;20739;-73
2023/04/04 04:18:22;;;;;;;8.15;3.63;;;1.30;36.60;;;;;;5063086;28;20753;-74
2023/04/04 04:20:48;;;;;;;8.10;4.17;;;1.20;37.60;;;;;;5055115;28;20395;-74
2023/04/04 04:23:13;;;;;;;8.27;4.17;;;1.10;41.30;;;;;;5062316;28;20494;-75
2023/04/04 04:25:39;;;;;;;8.93;4.32;;;1.40;41.00;;;;;;5064295;28;20396;-74
2023/04/04 04:28:04;;;;;;;6.68;4.20;;;1.40;38.00;;;;;;5053907;28;20405;-73
2023/04/04 04:30:30;;;;;;;11.32;5.80;;;1.30;39.90;;;;;;5053411;28;20404;-73
2023/04/04 04:32:56;;;;;;;9.60;4.63;;;1.40;43.40;;;;;;5053090;28;20882;-73
2023/04/04 04:35:21;;;;;;;12.30;5.93;;;1.60;41.90;;;;;;5053241;28;20458;-73
2023/04/04 04:37:47;;;;;;;17.85;5.40;;;1.50;40.50;;;;;;5052924;28;20396;-73
2023/04/04 04:40:15;;;;;;;10.18;4.80;;;1.40;41.20;;;;;;5053060;28;20474;-73
2023/04/04 04:42:47;;;;;;;11.15;4.50;;;1.40;40.00;;;;;;5052628;28;20874;-73
2023/04/04 04:45:13;;;;;;;11.43;4.75;;;1.20;40.00;;;;;;5056082;28;20890;-75
2023/04/04 04:47:38;;;;;;;8.35;4.47;;;1.00;39.40;;;;;;5053007;28;20412;-74
2023/04/04 04:50:05;;;;;;;10.35;4.68;;;0.80;39.30;;;;;;5053278;28;20387;-74
2023/04/04 04:52:30;;;;;;;8.90;4.55;;;0.80;39.90;;;;;;5052787;28;20389;-74
2023/04/04 04:54:56;;;;;;;13.47;5.33;;;0.80;39.40;;;;;;5055992;28;20389;-74
2023/04/04 04:57:22;;;;;;;12.95;5.97;;;0.90;39.20;;;;;;5052931;28;20862;-73
2023/04/04 04:59:48;;;;;;;8.82;4.80;;;1.20;39.10;;;;;;5052760;28;20386;-73
2023/04/04 05:02:14;;;;;;;11.20;5.30;;;1.20;38.90;;;;;;5052547;28;20500;-74
2023/04/04 05:04:43;;;;;;;12.07;5.80;;;1.20;41.60;;;;;;5051473;28;20487;-74
2023/04/04 05:07:11;;;;;;;9.88;5.50;;;1.10;43.20;;;;;;5052182;28;20389;-74
2023/04/04 05:09:36;;;;;;;13.52;5.65;;;0.90;44.40;;;;;;5053085;28;20854;-73
2023/04/04 05:12:02;;;;;;;16.80;6.00;;;0.80;45.70;;;;;;5052202;28;20377;-74
2023/04/04 05:14:28;;;;;;;11.55;5.30;;;0.70;46.40;;;;;;5053271;28;20385;-74
2023/04/04 05:16:54;;;;;;;8.87;5.60;;;0.50;47.70;;;;;;5052990;28;20456;-74
2023/04/04 05:19:19;;;;;;;11.13;6.13;;;0.50;48.30;;;;;;5052223;28;20389;-74
2023/04/04 05:21:45;;;;;;;11.90;5.72;;;0.60;49.40;;;;;;5051885;28;20436;-74
2023/04/04 05:24:13;;;;;;;11.90;5.50;;;0.50;49.80;;;;;;5051656;28;20501;-74
2023/04/04 05:26:38;;;;;;;8.90;5.45;;;0.40;50.60;;;;;;5052254;28;20385;-74
2023/04/04 05:29:04;;;;;;;10.60;5.90;;;0.50;50.70;;;;;;5051837;28;20488;-74
2023/04/04 05:31:30;;;;;;;12.90;5.97;;;0.60;50.80;;;;;;5051858;28;20386;-74
2023/04/04 05:33:55;;;;;;;12.97;6.40;;;0.50;51.40;;;;;;5052219;28;20416;-73
2023/04/04 05:36:21;;;;;;;13.57;6.40;;;0.50;51.90;;;;;;5050743;28;20451;-74
2023/04/04 05:38:47;;;;;;;11.57;6.00;;;0.60;52.20;;;;;;5052453;28;20409;-74
2023/04/04 05:41:12;;;;;;;10.53;5.80;;;0.70;49.90;;;;;;5051660;28;20402;-75
2023/04/04 05:43:38;;;;;;;20.00;6.40;;;0.90;49.60;;;;;;5051759;28;20785;-75
2023/04/04 05:46:03;;;;;;;10.65;5.93;;;1.10;48.50;;;;;;5051835;28;20393;-74
2023/04/04 05:48:29;;;;;;;13.65;5.70;;;1.20;46.90;;;;;;5052035;28;20446;-74
2023/04/04 05:50:55;;;;;;;10.37;6.10;;;1.20;47.00;;;;;;5051979;28;20386;-74
2023/04/04 05:53:21;;;;;;;12.70;5.30;;;1.20;47.10;;;;;;5051949;28;20824;-73
2023/04/04 05:55:53;;;;;;;11.60;5.40;;;1.50;44.90;;;;;;5052053;28;20401;-74
2023/04/04 05:58:18;;;;;;;11.07;5.70;;;1.60;43.40;;;;;;5051918;28;20381;-74
2023/04/04 06:00:44;;;;;;;12.07;5.20;;;1.70;43.20;;;;;;5051922;28;20382;-73
2023/04/04 06:03:09;;;;;;;10.87;5.10;;;1.60;43.20;;;;;;5051701;28;20411;-73
2023/04/04 06:05:35;;;;;;;10.60;5.50;;;1.60;42.70;;;;;;5049375;28;20929;-74
2023/04/04 06:08:00;;;;;;;12.10;6.00;;;1.70;43.30;;;;;;5051053;28;20405;-73
2023/04/04 06:10:26;;;;;;;14.77;5.30;;;1.80;41.90;;;;;;5052224;28;20463;-74
2023/04/04 06:12:51;;;;;;;15.65;5.40;;;2.00;39.80;;;;;;5050056;28;20386;-75
2023/04/04 06:15:17;;;;;;;10.73;4.95;;;2.20;38.90;;;;;;5051212;28;20401;-74
2023/04/04 06:17:43;;;;;;;17.00;5.93;;;2.40;37.00;;;;;;5052585;28;20397;-73
2023/04/04 06:20:09;;;;;;;8.30;5.05;;;2.30;37.20;;;;;;5050783;28;20401;-73
2023/04/04 06:22:35;;;;;;;13.30;5.07;;;2.40;36.80;;;;;;5051083;28;20455;-77
2023/04/04 06:25:01;;;;;;;13.25;5.20;;;2.40;37.30;;;;;;5051409;28;20886;-73
2023/04/04 06:27:27;;;;;;;8.87;5.40;;;2.40;37.60;;;;;;5049176;28;20457;-74
2023/04/04 06:29:52;;;;;;;10.93;4.70;;;2.60;37.90;;;;;;5037556;28;20431;-74
2023/04/04 06:32:19;;;;;;;11.18;4.50;;;2.80;36.60;;;;;;5039922;28;20476;-74
2023/04/04 06:34:44;;;;;;;15.00;6.00;;;3.10;33.80;;;;;;5044050;28;20459;-73
2023/04/04 06:37:10;;;;;;;13.70;5.30;;;3.10;33.40;;;;;;5048867;28;20393;-73
2023/04/04 06:39:36;;;;;;;10.50;5.10;;;3.30;32.30;;;;;;5049327;28;20921;-74
2023/04/04 06:42:02;;;;;;;17.25;5.50;;;3.50;31.00;;;;;;5047153;28;20409;-74
2023/04/04 06:44:27;;;;;;;11.63;5.00;;;3.60;30.40;;;;;;5048604;28;20381;-73
2023/04/04 06:46:53;;;;;;;14.73;4.80;;;3.70;29.80;;;;;;5040149;28;20398;-74
2023/04/04 06:49:19;;;;;;;9.65;4.60;;;3.80;29.50;;;;;;5049861;28;20509;-75
2023/04/04 06:51:45;;;;;;;10.40;4.95;;;4.00;29.10;;;;;;5037671;28;20857;-74
2023/04/04 06:54:10;;;;;;;12.68;5.53;;;4.00;27.80;;;;;;5043198;28;20373;-74
2023/04/04 06:56:36;;;;;;;9.70;4.97;;;4.20;28.00;;;;;;5049045;28;20388;-74
2023/04/04 06:59:02;;;;;;;10.63;4.85;;;4.30;27.50;;;;;;5048704;28;20439;-74
2023/04/04 07:01:27;;;;;;;9.55;4.65;;;4.40;26.60;;;;;;5048513;28;20408;-74
2023/04/04 07:03:53;;;;;;;11.63;5.00;;;4.50;25.30;;;;;;5047091;28;20411;-74
2023/04/04 07:06:21;;;;;;;7.73;4.50;;;4.60;24.60;;;;;;5048013;28;20401;-74
2023/04/04 07:08:46;;;;;;;8.65;3.90;;;4.70;24.20;;;;;;5029029;28;20402;-73
2023/04/04 07:11:12;;;;;;;8.93;4.80;;;4.70;22.70;;;;;;5035281;28;20431;-73
2023/04/04 07:13:38;;;;;;;8.77;4.07;;;5.00;22.10;;;;;;5054365;28;20411;-74
2023/04/04 07:16:03;;;;;;;11.70;3.90;;;5.10;22.30;;;;;;5053337;28;20523;-73
2023/04/04 07:18:29;;;;;;;9.40;3.70;;;5.20;21.70;;;;;;5052825;28;20806;-74
2023/04/04 07:20:55;;;;;;;10.77;4.35;;;5.20;21.60;;;;;;5051316;28;20395;-74
2023/04/04 07:23:20;;;;;;;7.77;3.40;;;5.40;20.10;;;;;;5045038;28;20782;-74
2023/04/04 07:25:46;;;;;;;6.83;3.43;;;5.50;19.70;;;;;;5048914;28;20411;-74
2023/04/04 07:28:12;;;;;;;6.60;3.20;;;5.50;19.10;;;;;;5058191;28;20455;-73
2023/04/04 07:30:37;;;;;;;9.13;4.07;;;5.50;17.70;;;;;;5054010;28;20406;-74
2023/04/04 07:33:03;;;;;;;6.77;3.20;;;5.60;18.50;;;;;;5050522;28;20755;-74
2023/04/04 07:35:29;;;;;;;3.83;2.70;;;5.60;17.20;;;;;;5064560;28;20405;-73
2023/04/04 07:37:54;;;;;;;10.75;3.70;;;5.60;17.20;;;;;;5053749;28;20409;-73
2023/04/04 07:40:20;;;;;;;7.30;3.23;;;5.80;17.60;;;;;;5053615;28;20421;-73
2023/04/04 07:42:50;;;;;;;7.07;2.78;;;5.80;17.00;;;;;;5052715;28;20399;-73
2023/04/04 07:45:16;;;;;;;7.28;3.30;;;5.90;16.30;;;;;;5054319;28;20387;-73
2023/04/04 07:47:43;;;;;;;7.30;3.95;;;6.00;16.80;;;;;;5057034;28;20388;-73
2023/04/04 07:50:10;;;;;;;16.15;4.80;;;6.10;18.10;;;;;;5074242;28;20429;-74
2023/04/04 07:52:35;;;;;;;11.50;4.80;;;6.20;16.90;;;;;;5074277;28;20408;-74
2023/04/04 07:55:02;;;;;;;6.47;3.53;;;6.20;17.10;;;;;;5074419;28;20381;-73
2023/04/04 07:57:28;;;;;;;16.05;7.30;;;6.30;17.20;;;;;;5071078;28;20472;-73
2023/04/04 07:59:53;;;;;;;8.07;3.80;;;6.50;17.00;;;;;;5070308;28;20407;-72
2023/04/04 08:02:19;;;;;;;13.23;5.53;;;6.40;16.00;;;;;;5055585;28;20383;-73
2023/04/04 08:04:45;;;;;;;6.20;2.60;;;6.50;16.00;;;;;;5052540;28;20411;-72
2023/04/04 08:07:10;;;;;;;7.95;3.13;;;6.60;13.50;;;;;;5055070;28;20406;-72
2023/04/04 08:09:36;;;;;;;6.35;2.60;;;6.60;13.80;;;;;;5047179;28;20407;-75
2023/04/04 08:12:02;;;;;;;9.20;5.00;;;6.40;13.20;;;;;;5033292;28;20415;-73
2023/04/04 08:14:27;;;;;;;11.20;4.60;;;6.30;16.10;;;;;;5034122;28;20825;-73
2023/04/04 08:16:53;;;;;;;5.47;3.78;;;6.30;15.30;;;;;;5033852;28;20478;-71
2023/04/04 08:19:19;;;;;;;10.50;5.00;;;6.40;15.60;;;;;;5031957;28;20756;-73
2023/04/04 08:21:45;;;;;;;8.85;4.50;;;6.50;16.50;;;;;;5031548;28;20815;-74
2023/04/04 08:24:11;;;;;;;12.10;5.10;;;6.40;16.10;;;;;;5035532;28;20825;-74
2023/04/04 08:26:37;;;;;;;8.73;3.65;;;6.50;16.50;;;;;;5050636;28;20435;-73
2023/04/04 08:29:03;;;;;;;9.43;3.85;;;6.60;15.10;;;;;;5051032;28;20437;-74
2023/04/04 08:31:29;;;;;;;8.57;4.25;;;6.80;14.80;;;;;;5050933;28;20405;-73
2023/04/04 08:33:55;;;;;;;6.53;4.70;;;6.80;15.00;;;;;;5050853;28;20408;-74
2023/04/04 08:36:21;;;;;;;14.48;4.80;;;6.80;15.30;;;;;;5051060;28;20881;-74
2023/04/04 08:38:47;;;;;;;11.80;4.18;;;6.80;15.00;;;;;;5051097;28;20460;-74
2023/04/04 08:41:14;;;;;;;9.07;3.63;;;6.80;16.40;;;;;;5050430;28;20420;-74
2023/04/04 08:43:42;;;;;;;10.30;4.90;;;7.00;15.70;;;;;;5046032;28;20418;-74
2023/04/04 08:46:10;;;;;;;7.70;4.03;;;7.30;14.60;;;;;;5040655;28;20918;-74
2023/04/04 08:48:37;;;;;;;8.52;3.25;;;7.40;15.10;;;;;;5040712;28;20411;-72
2023/04/04 08:51:03;;;;;;;10.10;3.93;;;7.60;13.00;;;;;;5052702;28;20386;-73
2023/04/04 08:53:31;;;;;;;6.18;2.60;;;7.70;13.40;;;;;;5053245;28;20412;-74
2023/04/04 08:55:59;;;;;;;5.10;2.80;;;7.60;11.40;;;;;;5052860;28;20382;-74
2023/04/04 08:58:26;;;;;;;8.90;4.00;;;7.40;11.70;;;;;;5052984;28;20385;-74
2023/04/04 09:00:53;;;;;;;6.38;2.67;;;7.40;13.80;;;;;;5052751;28;20469;-75
2023/04/04 09:03:31;;;;;;;7.00;2.58;;;7.30;11.40;;;;;;5052785;28;20394;-75
2023/04/04 09:05:57;;;;;;;4.82;2.95;;;7.00;12.20;;;;;;5053674;28;20558;-74
2023/04/04 09:08:23;;;;;;;7.10;2.50;;;7.00;12.70;;;;;;5052666;28;20788;-74
2023/04/04 09:10:51;;;;;;;7.65;3.10;;;6.80;11.80;;;;;;5052716;28;20374;-73
2023/04/04 09:13:16;;;;;;;11.10;5.07;;;6.80;12.20;;;;;;5042527;28;20404;-73
2023/04/04 09:15:48;;;;;;;23.65;9.73;;;6.90;15.70;;;;;;5052140;28;20389;-73
2023/04/04 09:18:14;;;;;;;11.35;6.43;;;7.00;15.80;;;;;;5052665;28;20383;-72
2023/04/04 09:20:41;;;;;;;8.15;3.85;;;7.30;15.50;;;;;;5052679;28;20432;-73
2023/04/04 09:23:08;;;;;;;12.48;5.30;;;7.50;14.70;;;;;;5068774;22;20445;-73
2023/04/04 09:25:36;;;;;;;11.25;3.80;;;7.50;14.70;;;;;;5060823;28;20412;-73
2023/04/04 09:28:04;;;;;;;8.07;3.75;;;7.60;13.60;;;;;;5062054;28;20412;-72
2023/04/04 09:30:31;;;;;;;11.15;4.05;;;7.60;13.60;;;;;;5056877;28;20396;-73
2023/04/04 09:33:00;;;;;;;9.38;3.50;;;7.60;13.90;;;;;;5062985;28;20384;-72
2023/04/04 09:35:26;;;;;;;5.13;2.45;;;7.60;12.70;;;;;;5072950;28;20460;-70
2023/04/04 09:37:52;;;;;;;6.78;4.47;;;7.70;11.50;;;;;;5068531;28;20457;-71
2023/04/04 09:40:17;;;;;;;9.40;3.30;;;7.70;14.50;;;;;;5067453;28;20393;-70
2023/04/04 09:42:43;;;;;;;6.88;3.70;;;7.60;13.70;;;;;;5058931;28;20534;-71
2023/04/04 09:45:09;;;;;;;7.35;3.13;;;7.60;13.40;;;;;;5052730;28;20378;-73
2023/04/04 09:47:41;;;;;;;6.90;2.65;;;7.70;11.60;;;;;;5052365;28;20472;-73
2023/04/04 09:50:07;;;;;;;10.93;2.97;;;7.80;10.30;;;;;;5052550;28;20392;-73
2023/04/04 09:52:36;;;;;;;9.75;4.00;;;7.60;9.50;;;;;;5050634;28;20480;-73
2023/04/04 09:55:03;;;;;;;7.90;3.63;;;7.60;11.90;;;;;;5052629;28;20895;-74
2023/04/04 09:57:31;;;;;;;5.03;2.90;;;7.70;12.20;;;;;;5051727;28;20826;-73
2023/04/04 10:00:02;;;;;;;12.65;5.10;;;7.70;11.30;;;;;;5052053;28;20727;-73
2023/04/04 10:02:32;;;;;;;7.10;3.90;;;7.80;14.30;;;;;;5052423;28;20411;-72
2023/04/04 10:04:58;;;;;;;5.07;2.95;;;8.00;11.70;;;;;;5050554;28;20400;-71
2023/04/04 10:07:27;;;;;;;8.50;3.60;;;8.00;11.70;;;;;;5052297;28;20400;-74
2023/04/04 10:09:53;;;;;;;8.60;4.15;;;8.10;11.00;;;;;;5052785;28;20393;-74
2023/04/04 10:12:24;;;;;;;10.65;4.45;;;8.10;12.40;;;;;;5051924;28;20788;-74
2023/04/04 10:14:56;;;;;;;6.47;4.67;;;8.20;13.30;;;;;;5052285;28;20389;-71
2023/04/04 10:17:24;;;;;;;7.30;2.92;;;8.40;11.30;;;;;;5053139;28;20382;-73
2023/04/04 10:19:52;;;;;;;10.25;4.70;;;8.40;9.60;;;;;;5053249;28;20468;-74
2023/04/04 10:22:21;;;;;;;4.72;3.20;;;8.40;13.40;;;;;;5053449;28;20424;-73
2023/04/04 10:24:46;;;;;;;4.63;2.78;;;8.40;12.20;;;;;;5053362;28;20469;-74
2023/04/04 10:27:12;;;;;;;7.00;3.90;;;8.50;9.30;;;;;;5052589;28;20912;-72
2023/04/04 10:29:37;;;;;;;7.65;3.40;;;8.40;10.30;;;;;;5051866;28;20924;-74
2023/04/04 10:32:05;;;;;;;8.00;3.45;;;8.50;10.50;;;;;;5051919;28;20944;-73
2023/04/04 10:34:43;;;;;;;8.50;4.72;;;8.40;9.70;;;;;;5052292;28;20472;-72
2023/04/04 10:37:19;;;;;;;10.60;4.78;;;8.50;12.00;;;;;;5052213;28;20747;-74
2023/04/04 10:40:09;;;;;;;7.90;3.53;;;8.50;12.50;;;;;;5052470;28;20476;-71
2023/04/04 10:42:40;;;;;;;6.93;3.90;;;8.70;10.50;;;;;;5052365;28;20454;-73
2023/04/04 10:45:09;;;;;;;9.10;4.38;;;8.60;10.30;;;;;;5052754;28;20743;-73
2023/04/04 10:47:35;;;;;;;9.13;5.18;;;8.50;12.10;;;;;;5051831;28;20381;-74
2023/04/04 10:50:05;;;;;;;7.18;3.45;;;8.60;13.50;;;;;;5052295;28;20401;-73
2023/04/04 10:52:31;;;;;;;6.68;3.42;;;8.80;9.50;;;;;;5051449;28;20698;-74
2023/04/04 10:54:59;;;;;;;7.78;3.47;;;8.80;9.90;;;;;;5055363;28;20373;-72
2023/04/04 10:57:27;;;;;;;9.95;5.75;;;8.70;10.20;;;;;;5054803;28;20389;-72
2023/04/04 11:00:06;;;;;;;8.95;5.20;;;8.70;13.10;;;;;;5053991;28;20948;-73
2023/04/04 11:02:54;;;;;;;8.98;5.07;;;8.70;12.80;;;;;;5058229;28;20385;-72
2023/04/04 11:05:24;;;;;;;9.90;5.28;;;8.70;11.60;;;;;;5055317;28;20850;-73
2023/04/04 11:08:07;;;;;;;6.95;3.60;;;8.90;13.50;;;;;;5056109;28;20909;-74
2023/04/04 11:10:35;;;;;;;7.03;3.03;;;9.10;9.10;;;;;;5054420;28;20396;-72
2023/04/04 11:13:08;;;;;;;4.85;3.22;;;9.00;9.00;;;;;;5055830;28;20380;-73
2023/04/04 11:16:06;;;;;;;8.00;4.20;;;8.90;9.10;;;;;;5039971;28;20481;-74
2023/04/04 11:18:38;;;;;;;8.40;4.32;;;8.90;10.40;;;;;;5055798;28;20385;-74
2023/04/04 11:21:06;;;;;;;13.98;4.40;;;8.90;10.20;;;;;;5056382;28;20488;-73
2023/04/04 11:23:47;;;;;;;7.68;3.30;;;9.00;9.80;;;;;;5056482;28;20393;-72
2023/04/04 11:26:13;;;;;;;6.93;3.57;;;8.70;7.50;;;;;;5056113;28;20472;-72
2023/04/04 11:28:38;;;;;;;7.93;3.10;;;8.50;8.90;;;;;;5055985;28;20413;-73
2023/04/04 11:31:17;;;;;;;7.53;3.70;;;8.60;9.00;;;;;;5056402;28;20393;-71
2023/04/04 11:34:05;;;;;;;7.38;4.00;;;8.60;9.00;;;;;;5057418;28;20399;-73
2023/04/04 11:36:34;;;;;;;9.10;2.78;;;8.90;8.80;;;;;;5055331;28;20393;-74
2023/04/04 11:39:04;;;;;;;5.90;2.50;;;8.90;7.70;;;;;;5055545;28;20387;-74
2023/04/04 11:41:48;;;;;;;6.17;3.47;;;8.60;7.40;;;;;;5055786;28;20723;-73
2023/04/04 11:44:16;;;;;;;8.45;3.90;;;8.70;7.80;;;;;;5056620;28;20410;-73
2023/04/04 11:46:42;;;;;;;6.30;3.47;;;8.80;7.80;;;;;;5056512;28;20784;-73
2023/04/04 11:49:09;;;;;;;9.85;4.03;;;8.80;6.80;;;;;;5062921;28;20412;-73
2023/04/04 11:51:36;;;;;;;11.57;4.63;;;8.80;7.60;;;;;;5064419;28;20400;-72
2023/04/04 11:54:02;;;;;;;7.80;4.30;;;9.10;9.40;;;;;;5065373;28;20388;-73
2023/04/04 11:56:27;;;;;;;10.63;5.60;;;9.20;8.20;;;;;;5065241;28;20424;-72
2023/04/04 11:58:53;;;;;;;4.30;3.00;;;9.40;10.80;;;;;;5075479;28;20465;-71
2023/04/04 12:01:19;;;;;;;8.10;3.70;;;9.60;6.50;;;;;;5074884;28;20393;-70
2023/04/04 12:03:45;;;;;;;5.10;3.03;;;9.50;6.00;;;;;;5067095;28;20396;-74
2023/04/04 12:06:11;;;;;;;5.32;2.80;;;9.50;5.50;;;;;;5059914;28;20381;-73
2023/04/04 12:08:38;;;;;;;7.65;3.70;;;9.30;5.90;;;;;;5063985;28;20777;-72
2023/04/04 12:11:09;;;;;;;7.75;4.05;;;9.20;7.30;;;;;;5056773;28;20387;-73
2023/04/04 12:13:42;;;;;;;5.60;3.10;;;9.30;8.40;;;;;;5053729;28;20417;-73
2023/04/04 12:16:08;;;;;;;6.43;3.70;;;9.50;6.90;;;;;;5054846;28;20378;-74
2023/04/04 12:18:33;;;;;;;5.37;3.47;;;9.60;6.60;;;;;;5054414;28;20451;-74
2023/04/04 12:21:00;;;;;;;7.93;3.43;;;9.50;6.30;;;;;;5054019;28;20389;-74
2023/04/04 12:23:27;;;;;;;11.48;4.63;;;9.50;6.90;;;;;;5054566;28;20451;-72
2023/04/04 12:25:55;;;;;;;8.45;4.10;;;9.60;8.10;;;;;;5055639;28;20447;-73
2023/04/04 12:28:21;;;;;;;7.85;3.60;;;9.80;7.20;;;;;;5054441;28;20409;-72
2023/04/04 12:30:48;;;;;;;5.53;3.37;;;9.60;6.50;;;;;;5054255;28;20408;-71
2023/04/04 12:33:13;;;;;;;10.85;3.63;;;9.60;7.30;;;;;;5054696;28;20445;-72
2023/04/04 12:35:39;;;;;;;6.50;3.40;;;9.80;7.00;;;;;;5056702;28;20420;-74
2023/04/04 12:38:12;;;;;;;4.07;3.00;;;9.90;6.20;;;;;;5059569;28;20393;-72
2023/04/04 12:40:38;;;;;;;5.85;2.58;;;10.00;4.60;;;;;;5057641;28;20412;-73
2023/04/04 12:43:08;;;;;;;7.10;3.10;;;9.90;4.30;;;;;;5055478;28;20385;-72
2023/04/04 12:45:38;;;;;;;7.72;3.60;;;10.10;4.80;;;;;;5056456;28;20404;-73
2023/04/04 12:48:12;;;;;;;11.25;4.43;;;10.20;5.20;;;;;;5061767;28;20778;-71
2023/04/04 12:50:50;;;;;;;7.53;3.00;;;10.40;6.50;;;;;;5062252;28;20408;-75
2023/04/04 12:53:17;;;;;;;5.33;3.10;;;10.50;4.70;;;;;;5060787;28;20490;-74
2023/04/04 12:55:48;;;;;;;6.30;3.05;;;10.50;3.60;;;;;;5062292;28;20435;-73